sensor_id;sensor_type;location;lat;lon;timestamp;temperature;humidity
2387;DHT22;49473;50.772;8.768;2023-08-31T00:01:24;11.90;99.90
2387;DHT22;49473;50.772;8.768;2023-08-31T00:03:50;11.90;99.90
2387;DHT22;49473;50.772;8.768;2023-08-31T00:06:18;11.80;99.90
2387;DHT22;49473;50.772;8.768;2023-08-31T00:08:47;11.80;99.90
2387;DHT22;49473;50.772;8.768;2023-08-31T00:11:14;11.80;99.90
2387;DHT22;49473;50.772;8.768;2023-08-31T00:13:41;11.80;99.90
2387;DHT22;49473;50.772;8.768;2023-08-31T00:16:09;11.80;99.90
2387;DHT22;49473;50.772;8.768;2023-08-31T00:18:38;11.80;99.90
2387;DHT22;49473;50.772;8.768;2023-08-31T00:21:04;11.70;99.90
2387;DHT22;49473;50.772;8.768;2023-08-31T00:23:31;11.70;99.90
2387;DHT22;49473;50.772;8.768;2023-08-31T00:25:58;11.70;99.90
2387;DHT22;49473;50.772;8.768;2023-08-31T00:28:25;11.70;99.90
2387;DHT22;49473;50.772;8.768;2023-08-31T00:30:52;11.70;99.90
2387;DHT22;49473;50.772;8.768;2023-08-31T00:33:20;11.70;99.90
2387;DHT22;49473;50.772;8.768;2023-08-31T00:35:47;11.60;99.90
2387;DHT22;49473;50.772;8.768;2023-08-31T00:38:14;11.50;99.90
2387;DHT22;49473;50.772;8.768;2023-08-31T00:40:41;11.50;99.90
2387;DHT22;49473;50.772;8.768;2023-08-31T00:43:10;11.50;99.90
2387;DHT22;49473;50.772;8.768;2023-08-31T00:45:37;11.50;99.90
2387;DHT22;49473;50.772;8.768;2023-08-31T00:48:06;11.50;99.90
2387;DHT22;49473;50.772;8.768;2023-08-31T00:50:34;11.50;99.90
2387;DHT22;49473;50.772;8.768;2023-08-31T00:53:01;11.50;99.90
2387;DHT22;49473;50.772;8.768;2023-08-31T00:55:28;11.50;99.90
2387;DHT22;49473;50.772;8.768;2023-08-31T00:57:55;11.50;99.90
2387;DHT22;49473;50.772;8.768;2023-08-31T01:00:27;11.40;99.90
2387;DHT22;49473;50.772;8.768;2023-08-31T01:03:03;11.30;99.90
2387;DHT22;49473;50.772;8.768;2023-08-31T01:05:39;11.20;99.90
2387;DHT22;49473;50.772;8.768;2023-08-31T01:08:19;11.20;99.90
2387;DHT22;49473;50.772;8.768;2023-08-31T01:11:00;11.20;99.90
2387;DHT22;49473;50.772;8.768;2023-08-31T01:13:31;11.20;99.90
2387;DHT22;49473;50.772;8.768;2023-08-31T01:16:02;11.20;99.90
2387;DHT22;49473;50.772;8.768;2023-08-31T01:18:31;11.20;99.90
2387;DHT22;49473;50.772;8.768;2023-08-31T01:21:09;11.30;99.90
2387;DHT22;49473;50.772;8.768;2023-08-31T01:23:49;11.30;99.90
2387;DHT22;49473;50.772;8.768;2023-08-31T01:26:17;11.30;99.90
2387;DHT22;49473;50.772;8.768;2023-08-31T01:28:44;11.30;99.90
2387;DHT22;49473;50.772;8.768;2023-08-31T01:31:11;11.30;99.90
2387;DHT22;49473;50.772;8.768;2023-08-31T01:33:37;11.30;99.90
2387;DHT22;49473;50.772;8.768;2023-08-31T01:36:07;11.30;99.90
2387;DHT22;49473;50.772;8.768;2023-08-31T01:38:36;11.40;99.90
2387;DHT22;49473;50.772;8.768;2023-08-31T01:41:07;11.30;99.90
2387;DHT22;49473;50.772;8.768;2023-08-31T01:43:39;11.30;99.90
2387;DHT22;49473;50.772;8.768;2023-08-31T01:46:07;11.30;99.90
2387;DHT22;49473;50.772;8.768;2023-08-31T01:48:38;11.30;99.90
2387;DHT22;49473;50.772;8.768;2023-08-31T01:51:06;11.20;99.90
2387;DHT22;49473;50.772;8.768;2023-08-31T01:53:33;11.00;99.90
2387;DHT22;49473;50.772;8.768;2023-08-31T01:56:00;11.00;99.90
2387;DHT22;49473;50.772;8.768;2023-08-31T01:58:28;10.90;99.90
2387;DHT22;49473;50.772;8.768;2023-08-31T02:00:55;10.90;99.90
2387;DHT22;49473;50.772;8.768;2023-08-31T02:03:22;10.90;99.90
2387;DHT22;49473;50.772;8.768;2023-08-31T02:05:48;10.90;99.90
2387;DHT22;49473;50.772;8.768;2023-08-31T02:08:15;10.90;99.90
2387;DHT22;49473;50.772;8.768;2023-08-31T02:10:43;10.90;99.90
2387;DHT22;49473;50.772;8.768;2023-08-31T02:13:10;10.80;99.90
2387;DHT22;49473;50.772;8.768;2023-08-31T02:15:38;10.70;99.90
2387;DHT22;49473;50.772;8.768;2023-08-31T02:18:07;10.60;99.90
2387;DHT22;49473;50.772;8.768;2023-08-31T02:20:33;10.70;99.90
2387;DHT22;49473;50.772;8.768;2023-08-31T02:23:00;10.70;99.90
2387;DHT22;49473;50.772;8.768;2023-08-31T02:25:27;10.60;99.90
2387;DHT22;49473;50.772;8.768;2023-08-31T02:27:54;10.60;99.90
2387;DHT22;49473;50.772;8.768;2023-08-31T02:30:21;10.70;99.90
2387;DHT22;49473;50.772;8.768;2023-08-31T02:32:49;10.70;99.90
2387;DHT22;49473;50.772;8.768;2023-08-31T02:35:16;10.60;99.90
2387;DHT22;49473;50.772;8.768;2023-08-31T02:37:43;10.60;99.90
2387;DHT22;49473;50.772;8.768;2023-08-31T02:40:10;10.60;99.90
2387;DHT22;49473;50.772;8.768;2023-08-31T02:42:36;10.60;99.90
2387;DHT22;49473;50.772;8.768;2023-08-31T02:45:04;10.60;99.90
2387;DHT22;49473;50.772;8.768;2023-08-31T02:47:30;10.60;99.90
2387;DHT22;49473;50.772;8.768;2023-08-31T02:49:59;10.60;99.90
2387;DHT22;49473;50.772;8.768;2023-08-31T02:52:26;10.70;99.90
2387;DHT22;49473;50.772;8.768;2023-08-31T02:54:52;10.70;99.90
2387;DHT22;49473;50.772;8.768;2023-08-31T02:57:20;10.80;99.90
2387;DHT22;49473;50.772;8.768;2023-08-31T02:59:49;10.80;99.90
2387;DHT22;49473;50.772;8.768;2023-08-31T03:02:16;10.80;99.90
2387;DHT22;49473;50.772;8.768;2023-08-31T03:04:43;10.90;99.90
2387;DHT22;49473;50.772;8.768;2023-08-31T03:07:11;11.00;99.90
2387;DHT22;49473;50.772;8.768;2023-08-31T03:09:40;11.10;99.90
2387;DHT22;49473;50.772;8.768;2023-08-31T03:12:07;11.10;99.90
2387;DHT22;49473;50.772;8.768;2023-08-31T03:14:34;11.20;99.90
2387;DHT22;49473;50.772;8.768;2023-08-31T03:17:01;11.10;99.90
2387;DHT22;49473;50.772;8.768;2023-08-31T03:19:28;11.10;99.90
2387;DHT22;49473;50.772;8.768;2023-08-31T03:21:55;11.10;99.90
2387;DHT22;49473;50.772;8.768;2023-08-31T03:24:23;11.20;99.90
2387;DHT22;49473;50.772;8.768;2023-08-31T03:26:50;11.30;99.90
2387;DHT22;49473;50.772;8.768;2023-08-31T03:29:17;11.40;99.90
2387;DHT22;49473;50.772;8.768;2023-08-31T03:31:43;11.40;99.90
2387;DHT22;49473;50.772;8.768;2023-08-31T03:34:10;11.50;99.90
2387;DHT22;49473;50.772;8.768;2023-08-31T03:36:37;11.50;99.90
2387;DHT22;49473;50.772;8.768;2023-08-31T03:39:04;11.60;99.90
2387;DHT22;49473;50.772;8.768;2023-08-31T03:41:33;11.60;99.90
2387;DHT22;49473;50.772;8.768;2023-08-31T03:44:01;11.60;99.90
2387;DHT22;49473;50.772;8.768;2023-08-31T03:46:27;11.60;99.90
2387;DHT22;49473;50.772;8.768;2023-08-31T03:48:54;11.70;99.90
2387;DHT22;49473;50.772;8.768;2023-08-31T03:51:21;11.70;99.90
2387;DHT22;49473;50.772;8.768;2023-08-31T03:53:48;11.70;99.90
2387;DHT22;49473;50.772;8.768;2023-08-31T03:56:15;11.70;99.90
2387;DHT22;49473;50.772;8.768;2023-08-31T03:58:43;11.70;99.90
2387;DHT22;49473;50.772;8.768;2023-08-31T04:01:09;11.80;99.90
2387;DHT22;49473;50.772;8.768;2023-08-31T04:03:38;11.80;99.90
2387;DHT22;49473;50.772;8.768;2023-08-31T04:06:05;11.80;99.90
2387;DHT22;49473;50.772;8.768;2023-08-31T04:08:31;11.70;99.90
2387;DHT22;49473;50.772;8.768;2023-08-31T04:10:58;11.70;99.90
2387;DHT22;49473;50.772;8.768;2023-08-31T04:13:25;11.70;99.90
2387;DHT22;49473;50.772;8.768;2023-08-31T04:15:53;11.70;99.90
2387;DHT22;49473;50.772;8.768;2023-08-31T04:18:20;11.70;99.90
2387;DHT22;49473;50.772;8.768;2023-08-31T04:20:49;11.70;99.90
2387;DHT22;49473;50.772;8.768;2023-08-31T04:23:17;11.70;99.90
2387;DHT22;49473;50.772;8.768;2023-08-31T04:25:45;11.70;99.90
2387;DHT22;49473;50.772;8.768;2023-08-31T04:28:12;11.70;99.90
2387;DHT22;49473;50.772;8.768;2023-08-31T04:30:40;11.70;99.90
2387;DHT22;49473;50.772;8.768;2023-08-31T04:33:08;11.70;99.90
2387;DHT22;49473;50.772;8.768;2023-08-31T04:35:34;11.70;99.90
2387;DHT22;49473;50.772;8.768;2023-08-31T04:38:01;11.60;99.90
2387;DHT22;49473;50.772;8.768;2023-08-31T04:40:28;11.60;99.90
2387;DHT22;49473;50.772;8.768;2023-08-31T04:42:55;11.60;99.90
2387;DHT22;49473;50.772;8.768;2023-08-31T04:45:22;11.50;99.90
2387;DHT22;49473;50.772;8.768;2023-08-31T04:47:49;11.50;99.90
2387;DHT22;49473;50.772;8.768;2023-08-31T04:50:18;11.40;99.90
2387;DHT22;49473;50.772;8.768;2023-08-31T04:52:45;11.30;99.90
2387;DHT22;49473;50.772;8.768;2023-08-31T04:55:13;11.30;99.90
2387;DHT22;49473;50.772;8.768;2023-08-31T04:57:40;11.30;99.90
2387;DHT22;49473;50.772;8.768;2023-08-31T05:00:07;11.30;99.90
2387;DHT22;49473;50.772;8.768;2023-08-31T05:02:35;11.40;99.90
2387;DHT22;49473;50.772;8.768;2023-08-31T05:05:02;11.50;99.90
2387;DHT22;49473;50.772;8.768;2023-08-31T05:07:31;11.60;99.90
2387;DHT22;49473;50.772;8.768;2023-08-31T05:09:57;11.70;99.90
2387;DHT22;49473;50.772;8.768;2023-08-31T05:12:24;11.70;99.90
2387;DHT22;49473;50.772;8.768;2023-08-31T05:14:51;11.80;99.90
2387;DHT22;49473;50.772;8.768;2023-08-31T05:17:18;11.80;99.90
2387;DHT22;49473;50.772;8.768;2023-08-31T05:19:44;11.80;99.90
2387;DHT22;49473;50.772;8.768;2023-08-31T05:22:12;11.80;99.90
2387;DHT22;49473;50.772;8.768;2023-08-31T05:24:40;11.80;99.90
2387;DHT22;49473;50.772;8.768;2023-08-31T05:27:07;11.80;99.90
2387;DHT22;49473;50.772;8.768;2023-08-31T05:29:34;11.80;99.90
2387;DHT22;49473;50.772;8.768;2023-08-31T05:32:01;12.10;99.90
2387;DHT22;49473;50.772;8.768;2023-08-31T05:34:28;12.50;99.90
2387;DHT22;49473;50.772;8.768;2023-08-31T05:36:56;12.90;99.90
2387;DHT22;49473;50.772;8.768;2023-08-31T05:39:22;13.10;99.90
2387;DHT22;49473;50.772;8.768;2023-08-31T05:41:51;13.20;99.90
2387;DHT22;49473;50.772;8.768;2023-08-31T05:44:17;13.10;99.90
2387;DHT22;49473;50.772;8.768;2023-08-31T05:46:44;13.10;99.90
2387;DHT22;49473;50.772;8.768;2023-08-31T05:49:11;13.00;99.90
2387;DHT22;49473;50.772;8.768;2023-08-31T05:51:38;12.90;99.90
2387;DHT22;49473;50.772;8.768;2023-08-31T05:54:04;12.80;99.90
2387;DHT22;49473;50.772;8.768;2023-08-31T05:56:35;12.80;99.90
2387;DHT22;49473;50.772;8.768;2023-08-31T05:59:04;12.90;99.90
2387;DHT22;49473;50.772;8.768;2023-08-31T06:01:31;12.80;99.90
2387;DHT22;49473;50.772;8.768;2023-08-31T06:03:58;12.80;99.90
2387;DHT22;49473;50.772;8.768;2023-08-31T06:06:25;12.70;99.90
2387;DHT22;49473;50.772;8.768;2023-08-31T06:08:51;12.60;99.90
2387;DHT22;49473;50.772;8.768;2023-08-31T06:11:19;12.80;99.90
2387;DHT22;49473;50.772;8.768;2023-08-31T06:13:46;13.40;99.90
2387;DHT22;49473;50.772;8.768;2023-08-31T06:16:15;14.10;99.90
2387;DHT22;49473;50.772;8.768;2023-08-31T06:18:41;14.90;99.90
2387;DHT22;49473;50.772;8.768;2023-08-31T06:21:09;15.50;99.90
2387;DHT22;49473;50.772;8.768;2023-08-31T06:23:35;16.30;99.90
2387;DHT22;49473;50.772;8.768;2023-08-31T06:26:02;16.40;99.90
2387;DHT22;49473;50.772;8.768;2023-08-31T06:28:29;16.60;99.90
2387;DHT22;49473;50.772;8.768;2023-08-31T06:30:56;16.60;99.90
2387;DHT22;49473;50.772;8.768;2023-08-31T06:33:24;16.10;99.90
2387;DHT22;49473;50.772;8.768;2023-08-31T06:35:50;16.00;99.90
2387;DHT22;49473;50.772;8.768;2023-08-31T06:38:17;16.20;99.90
2387;DHT22;49473;50.772;8.768;2023-08-31T06:40:44;17.00;99.90
2387;DHT22;49473;50.772;8.768;2023-08-31T06:43:11;17.60;99.90
2387;DHT22;49473;50.772;8.768;2023-08-31T06:45:38;18.30;99.90
2387;DHT22;49473;50.772;8.768;2023-08-31T06:48:06;18.40;99.90
2387;DHT22;49473;50.772;8.768;2023-08-31T06:50:34;18.60;99.90
2387;DHT22;49473;50.772;8.768;2023-08-31T06:53:02;19.00;99.90
2387;DHT22;49473;50.772;8.768;2023-08-31T06:55:28;19.40;99.90
2387;DHT22;49473;50.772;8.768;2023-08-31T06:57:57;19.40;99.90
2387;DHT22;49473;50.772;8.768;2023-08-31T07:00:24;19.30;99.90
2387;DHT22;49473;50.772;8.768;2023-08-31T07:02:50;19.20;99.90
2387;DHT22;49473;50.772;8.768;2023-08-31T07:05:17;19.20;99.90
2387;DHT22;49473;50.772;8.768;2023-08-31T07:07:52;19.30;99.90
2387;DHT22;49473;50.772;8.768;2023-08-31T07:10:19;19.60;99.90
2387;DHT22;49473;50.772;8.768;2023-08-31T07:12:45;20.10;99.90
2387;DHT22;49473;50.772;8.768;2023-08-31T07:15:12;20.60;99.90
2387;DHT22;49473;50.772;8.768;2023-08-31T07:17:39;21.20;99.90
2387;DHT22;49473;50.772;8.768;2023-08-31T07:20:06;21.60;99.90
2387;DHT22;49473;50.772;8.768;2023-08-31T07:22:34;21.70;99.90
2387;DHT22;49473;50.772;8.768;2023-08-31T07:25:03;21.60;99.90
2387;DHT22;49473;50.772;8.768;2023-08-31T07:27:31;21.70;99.90
2387;DHT22;49473;50.772;8.768;2023-08-31T07:29:58;21.50;99.90
2387;DHT22;49473;50.772;8.768;2023-08-31T07:32:24;21.10;99.90
2387;DHT22;49473;50.772;8.768;2023-08-31T07:34:51;20.70;99.90
2387;DHT22;49473;50.772;8.768;2023-08-31T07:37:18;20.30;99.90
2387;DHT22;49473;50.772;8.768;2023-08-31T07:39:45;20.50;99.90
2387;DHT22;49473;50.772;8.768;2023-08-31T07:42:13;21.10;99.90
2387;DHT22;49473;50.772;8.768;2023-08-31T07:44:39;22.30;99.90
2387;DHT22;49473;50.772;8.768;2023-08-31T07:47:07;23.00;99.90
2387;DHT22;49473;50.772;8.768;2023-08-31T07:49:34;23.00;99.90
2387;DHT22;49473;50.772;8.768;2023-08-31T07:52:00;23.30;99.90
2387;DHT22;49473;50.772;8.768;2023-08-31T07:54:28;23.80;99.90
2387;DHT22;49473;50.772;8.768;2023-08-31T07:56:55;23.90;99.90
2387;DHT22;49473;50.772;8.768;2023-08-31T07:59:23;23.80;99.90
2387;DHT22;49473;50.772;8.768;2023-08-31T08:01:49;23.80;99.90
2387;DHT22;49473;50.772;8.768;2023-08-31T08:04:16;24.00;99.90
2387;DHT22;49473;50.772;8.768;2023-08-31T08:06:44;24.30;99.90
2387;DHT22;49473;50.772;8.768;2023-08-31T08:09:11;24.10;99.90
2387;DHT22;49473;50.772;8.768;2023-08-31T08:11:38;24.80;99.90
2387;DHT22;49473;50.772;8.768;2023-08-31T08:14:05;24.60;99.90
2387;DHT22;49473;50.772;8.768;2023-08-31T08:16:33;24.50;99.90
2387;DHT22;49473;50.772;8.768;2023-08-31T08:19:01;24.90;99.90
2387;DHT22;49473;50.772;8.768;2023-08-31T08:21:27;25.60;99.90
2387;DHT22;49473;50.772;8.768;2023-08-31T08:23:54;25.50;99.90
2387;DHT22;49473;50.772;8.768;2023-08-31T08:26:21;25.00;99.90
2387;DHT22;49473;50.772;8.768;2023-08-31T08:28:47;24.80;99.90
2387;DHT22;49473;50.772;8.768;2023-08-31T08:31:14;25.20;99.90
2387;DHT22;49473;50.772;8.768;2023-08-31T08:33:42;24.10;99.90
2387;DHT22;49473;50.772;8.768;2023-08-31T08:36:09;23.80;99.90
2387;DHT22;49473;50.772;8.768;2023-08-31T08:38:36;24.60;99.90
2387;DHT22;49473;50.772;8.768;2023-08-31T08:41:05;24.60;99.90
2387;DHT22;49473;50.772;8.768;2023-08-31T08:43:33;23.90;99.90
2387;DHT22;49473;50.772;8.768;2023-08-31T08:46:04;22.70;99.90
2387;DHT22;49473;50.772;8.768;2023-08-31T08:48:32;22.20;99.90
2387;DHT22;49473;50.772;8.768;2023-08-31T08:51:02;21.50;99.90
2387;DHT22;49473;50.772;8.768;2023-08-31T08:53:29;21.70;99.90
2387;DHT22;49473;50.772;8.768;2023-08-31T08:55:56;22.60;99.90
2387;DHT22;49473;50.772;8.768;2023-08-31T08:58:23;22.60;99.90
2387;DHT22;49473;50.772;8.768;2023-08-31T09:00:50;22.30;99.90
2387;DHT22;49473;50.772;8.768;2023-08-31T09:03:18;22.30;99.90
2387;DHT22;49473;50.772;8.768;2023-08-31T09:05:45;23.50;99.90
2387;DHT22;49473;50.772;8.768;2023-08-31T09:08:13;24.90;99.90
2387;DHT22;49473;50.772;8.768;2023-08-31T09:10:41;26.00;99.90
2387;DHT22;49473;50.772;8.768;2023-08-31T09:13:09;26.40;99.90
2387;DHT22;49473;50.772;8.768;2023-08-31T09:15:37;27.30;99.90
2387;DHT22;49473;50.772;8.768;2023-08-31T09:18:05;27.10;99.90
2387;DHT22;49473;50.772;8.768;2023-08-31T09:20:32;28.20;99.90
2387;DHT22;49473;50.772;8.768;2023-08-31T09:23:09;28.60;99.90
2387;DHT22;49473;50.772;8.768;2023-08-31T09:25:41;29.50;99.90
2387;DHT22;49473;50.772;8.768;2023-08-31T09:28:09;29.90;99.60
2387;DHT22;49473;50.772;8.768;2023-08-31T09:30:36;31.10;97.40
2387;DHT22;49473;50.772;8.768;2023-08-31T09:33:04;31.50;94.30
2387;DHT22;49473;50.772;8.768;2023-08-31T09:35:31;31.80;91.20
2387;DHT22;49473;50.772;8.768;2023-08-31T09:37:58;31.30;89.90
2387;DHT22;49473;50.772;8.768;2023-08-31T09:40:25;31.50;89.80
2387;DHT22;49473;50.772;8.768;2023-08-31T09:42:53;31.20;84.40
2387;DHT22;49473;50.772;8.768;2023-08-31T09:45:26;31.40;83.30
2387;DHT22;49473;50.772;8.768;2023-08-31T09:47:55;32.00;83.80
2387;DHT22;49473;50.772;8.768;2023-08-31T09:50:23;32.10;84.10
2387;DHT22;49473;50.772;8.768;2023-08-31T09:52:51;33.20;78.80
2387;DHT22;49473;50.772;8.768;2023-08-31T09:55:21;33.50;79.20
2387;DHT22;49473;50.772;8.768;2023-08-31T09:57:50;31.60;77.90
2387;DHT22;49473;50.772;8.768;2023-08-31T10:00:19;31.20;78.30
2387;DHT22;49473;50.772;8.768;2023-08-31T10:02:46;31.40;79.40
2387;DHT22;49473;50.772;8.768;2023-08-31T10:05:13;31.80;77.60
2387;DHT22;49473;50.772;8.768;2023-08-31T10:07:41;32.60;76.10
2387;DHT22;49473;50.772;8.768;2023-08-31T10:10:08;32.10;74.50
2387;DHT22;49473;50.772;8.768;2023-08-31T10:12:35;30.00;77.60
2387;DHT22;49473;50.772;8.768;2023-08-31T10:15:02;29.20;82.30
2387;DHT22;49473;50.772;8.768;2023-08-31T10:17:32;28.20;81.60
2387;DHT22;49473;50.772;8.768;2023-08-31T10:20:00;27.80;89.70
2387;DHT22;49473;50.772;8.768;2023-08-31T10:22:26;27.50;88.60
2387;DHT22;49473;50.772;8.768;2023-08-31T10:24:56;28.20;87.90
2387;DHT22;49473;50.772;8.768;2023-08-31T10:27:24;28.70;85.00
2387;DHT22;49473;50.772;8.768;2023-08-31T10:29:50;28.30;85.40
2387;DHT22;49473;50.772;8.768;2023-08-31T10:32:17;27.50;85.70
2387;DHT22;49473;50.772;8.768;2023-08-31T10:35:04;26.90;84.00
2387;DHT22;49473;50.772;8.768;2023-08-31T10:37:30;27.00;86.20
2387;DHT22;49473;50.772;8.768;2023-08-31T10:40:07;26.80;85.50
2387;DHT22;49473;50.772;8.768;2023-08-31T10:42:41;26.20;87.30
2387;DHT22;49473;50.772;8.768;2023-08-31T10:45:09;25.40;90.40
2387;DHT22;49473;50.772;8.768;2023-08-31T10:47:37;26.60;90.60
2387;DHT22;49473;50.772;8.768;2023-08-31T10:50:21;27.90;88.10
2387;DHT22;49473;50.772;8.768;2023-08-31T10:52:48;27.60;84.40
2387;DHT22;49473;50.772;8.768;2023-08-31T10:55:15;26.20;90.20
2387;DHT22;49473;50.772;8.768;2023-08-31T10:57:42;26.80;91.50
2387;DHT22;49473;50.772;8.768;2023-08-31T11:00:09;27.50;90.60
2387;DHT22;49473;50.772;8.768;2023-08-31T11:02:38;27.80;89.80
2387;DHT22;49473;50.772;8.768;2023-08-31T11:05:09;27.50;89.00
2387;DHT22;49473;50.772;8.768;2023-08-31T11:07:38;27.30;87.90
2387;DHT22;49473;50.772;8.768;2023-08-31T11:10:11;27.60;89.90
2387;DHT22;49473;50.772;8.768;2023-08-31T11:12:38;29.30;89.90
2387;DHT22;49473;50.772;8.768;2023-08-31T11:15:06;30.70;85.90
2387;DHT22;49473;50.772;8.768;2023-08-31T11:17:33;32.20;81.40
2387;DHT22;49473;50.772;8.768;2023-08-31T11:20:01;33.00;77.70
2387;DHT22;49473;50.772;8.768;2023-08-31T11:22:30;33.90;74.90
2387;DHT22;49473;50.772;8.768;2023-08-31T11:24:59;34.60;73.70
2387;DHT22;49473;50.772;8.768;2023-08-31T11:27:25;33.90;71.90
2387;DHT22;49473;50.772;8.768;2023-08-31T11:29:52;33.40;74.20
2387;DHT22;49473;50.772;8.768;2023-08-31T11:32:19;31.70;74.50
2387;DHT22;49473;50.772;8.768;2023-08-31T11:34:45;29.80;75.50
2387;DHT22;49473;50.772;8.768;2023-08-31T11:37:13;28.00;80.70
2387;DHT22;49473;50.772;8.768;2023-08-31T11:39:42;27.00;83.30
2387;DHT22;49473;50.772;8.768;2023-08-31T11:42:16;25.90;87.80
2387;DHT22;49473;50.772;8.768;2023-08-31T11:44:44;26.00;90.20
2387;DHT22;49473;50.772;8.768;2023-08-31T11:47:11;26.10;89.90
2387;DHT22;49473;50.772;8.768;2023-08-31T11:49:39;27.10;89.10
2387;DHT22;49473;50.772;8.768;2023-08-31T11:52:06;28.90;86.40
2387;DHT22;49473;50.772;8.768;2023-08-31T11:54:33;29.50;80.90
2387;DHT22;49473;50.772;8.768;2023-08-31T11:56:59;29.10;79.90
2387;DHT22;49473;50.772;8.768;2023-08-31T11:59:28;28.50;81.90
2387;DHT22;49473;50.772;8.768;2023-08-31T12:01:56;28.30;83.80
2387;DHT22;49473;50.772;8.768;2023-08-31T12:04:23;27.20;81.60
2387;DHT22;49473;50.772;8.768;2023-08-31T12:06:51;26.10;84.40
2387;DHT22;49473;50.772;8.768;2023-08-31T12:09:20;25.20;87.70
2387;DHT22;49473;50.772;8.768;2023-08-31T12:11:50;25.20;89.80
2387;DHT22;49473;50.772;8.768;2023-08-31T12:14:21;25.50;90.00
2387;DHT22;49473;50.772;8.768;2023-08-31T12:16:51;24.50;87.90
2387;DHT22;49473;50.772;8.768;2023-08-31T12:19:18;23.90;88.70
2387;DHT22;49473;50.772;8.768;2023-08-31T12:21:46;23.40;92.80
2387;DHT22;49473;50.772;8.768;2023-08-31T12:24:13;23.60;90.60
2387;DHT22;49473;50.772;8.768;2023-08-31T12:26:42;23.80;90.90
2387;DHT22;49473;50.772;8.768;2023-08-31T12:29:09;25.10;90.40
2387;DHT22;49473;50.772;8.768;2023-08-31T12:31:36;26.70;90.10
2387;DHT22;49473;50.772;8.768;2023-08-31T12:34:04;26.50;87.30
2387;DHT22;49473;50.772;8.768;2023-08-31T12:36:32;26.60;88.60
2387;DHT22;49473;50.772;8.768;2023-08-31T12:38:59;28.10;83.70
2387;DHT22;49473;50.772;8.768;2023-08-31T12:41:27;29.60;83.50
2387;DHT22;49473;50.772;8.768;2023-08-31T12:43:54;30.60;83.90
2387;DHT22;49473;50.772;8.768;2023-08-31T12:46:21;31.30;77.20
2387;DHT22;49473;50.772;8.768;2023-08-31T12:48:47;31.20;78.50
2387;DHT22;49473;50.772;8.768;2023-08-31T12:51:16;30.80;79.10
2387;DHT22;49473;50.772;8.768;2023-08-31T12:53:43;29.50;79.70
2387;DHT22;49473;50.772;8.768;2023-08-31T12:56:10;29.10;80.20
2387;DHT22;49473;50.772;8.768;2023-08-31T12:58:37;27.90;81.70
2387;DHT22;49473;50.772;8.768;2023-08-31T13:01:04;27.00;83.60
2387;DHT22;49473;50.772;8.768;2023-08-31T13:03:31;25.80;88.50
2387;DHT22;49473;50.772;8.768;2023-08-31T13:05:58;25.00;90.10
2387;DHT22;49473;50.772;8.768;2023-08-31T13:08:26;24.40;87.80
2387;DHT22;49473;50.772;8.768;2023-08-31T13:10:54;24.30;90.60
2387;DHT22;49473;50.772;8.768;2023-08-31T13:13:21;24.20;92.10
2387;DHT22;49473;50.772;8.768;2023-08-31T13:15:48;24.20;91.60
2387;DHT22;49473;50.772;8.768;2023-08-31T13:18:16;24.00;91.00
2387;DHT22;49473;50.772;8.768;2023-08-31T13:20:49;23.80;93.50
2387;DHT22;49473;50.772;8.768;2023-08-31T13:23:15;23.40;92.90
2387;DHT22;49473;50.772;8.768;2023-08-31T13:25:44;23.00;92.40
2387;DHT22;49473;50.772;8.768;2023-08-31T13:28:10;22.70;94.30
2387;DHT22;49473;50.772;8.768;2023-08-31T13:30:37;22.40;94.30
2387;DHT22;49473;50.772;8.768;2023-08-31T13:33:04;22.10;94.30
2387;DHT22;49473;50.772;8.768;2023-08-31T13:35:31;22.20;96.10
2387;DHT22;49473;50.772;8.768;2023-08-31T13:37:57;21.90;95.00
2387;DHT22;49473;50.772;8.768;2023-08-31T13:40:24;21.70;96.70
2387;DHT22;49473;50.772;8.768;2023-08-31T13:42:55;21.80;95.90
2387;DHT22;49473;50.772;8.768;2023-08-31T13:45:22;21.50;97.30
2387;DHT22;49473;50.772;8.768;2023-08-31T13:47:49;21.50;98.60
2387;DHT22;49473;50.772;8.768;2023-08-31T13:50:16;21.50;98.60
2387;DHT22;49473;50.772;8.768;2023-08-31T13:52:43;21.40;98.50
2387;DHT22;49473;50.772;8.768;2023-08-31T13:55:09;21.20;99.60
2387;DHT22;49473;50.772;8.768;2023-08-31T13:57:36;21.30;99.20
2387;DHT22;49473;50.772;8.768;2023-08-31T14:00:06;21.70;99.20
2387;DHT22;49473;50.772;8.768;2023-08-31T14:02:34;22.10;99.90
2387;DHT22;49473;50.772;8.768;2023-08-31T14:05:02;22.00;99.40
2387;DHT22;49473;50.772;8.768;2023-08-31T14:07:29;22.00;98.20
2387;DHT22;49473;50.772;8.768;2023-08-31T14:09:55;22.00;98.60
2387;DHT22;49473;50.772;8.768;2023-08-31T14:12:23;21.80;98.50
2387;DHT22;49473;50.772;8.768;2023-08-31T14:14:51;21.70;99.90
2387;DHT22;49473;50.772;8.768;2023-08-31T14:17:19;21.50;98.80
2387;DHT22;49473;50.772;8.768;2023-08-31T14:19:46;21.20;99.90
2387;DHT22;49473;50.772;8.768;2023-08-31T14:22:12;20.90;99.90
2387;DHT22;49473;50.772;8.768;2023-08-31T14:24:39;20.80;99.90
2387;DHT22;49473;50.772;8.768;2023-08-31T14:27:06;20.70;99.90
2387;DHT22;49473;50.772;8.768;2023-08-31T14:29:33;20.80;99.90
2387;DHT22;49473;50.772;8.768;2023-08-31T14:32:00;21.00;99.90
2387;DHT22;49473;50.772;8.768;2023-08-31T14:34:29;21.00;99.90
2387;DHT22;49473;50.772;8.768;2023-08-31T14:36:57;20.70;99.90
2387;DHT22;49473;50.772;8.768;2023-08-31T14:39:26;20.60;99.90
2387;DHT22;49473;50.772;8.768;2023-08-31T14:41:55;20.50;99.90
2387;DHT22;49473;50.772;8.768;2023-08-31T14:44:22;20.50;99.90
2387;DHT22;49473;50.772;8.768;2023-08-31T14:46:48;20.20;99.90
2387;DHT22;49473;50.772;8.768;2023-08-31T14:49:15;20.10;99.90
2387;DHT22;49473;50.772;8.768;2023-08-31T14:51:43;19.80;99.90
2387;DHT22;49473;50.772;8.768;2023-08-31T14:54:10;19.50;99.90
2387;DHT22;49473;50.772;8.768;2023-08-31T14:56:37;18.80;99.90
2387;DHT22;49473;50.772;8.768;2023-08-31T14:59:04;18.00;99.90
2387;DHT22;49473;50.772;8.768;2023-08-31T15:01:31;16.90;99.90
2387;DHT22;49473;50.772;8.768;2023-08-31T15:03:57;16.80;99.90
2387;DHT22;49473;50.772;8.768;2023-08-31T15:06:24;16.60;99.90
2387;DHT22;49473;50.772;8.768;2023-08-31T15:08:52;16.70;99.90
2387;DHT22;49473;50.772;8.768;2023-08-31T15:11:19;16.70;99.90
2387;DHT22;49473;50.772;8.768;2023-08-31T15:13:46;16.80;99.90
2387;DHT22;49473;50.772;8.768;2023-08-31T15:16:12;16.90;99.90
2387;DHT22;49473;50.772;8.768;2023-08-31T15:18:39;16.80;99.90
2387;DHT22;49473;50.772;8.768;2023-08-31T15:21:06;16.70;99.90
2387;DHT22;49473;50.772;8.768;2023-08-31T15:23:33;16.70;99.90
2387;DHT22;49473;50.772;8.768;2023-08-31T15:26:01;16.40;99.90
2387;DHT22;49473;50.772;8.768;2023-08-31T15:28:29;16.10;99.90
2387;DHT22;49473;50.772;8.768;2023-08-31T15:30:55;15.80;99.90
2387;DHT22;49473;50.772;8.768;2023-08-31T15:33:22;15.70;99.90
2387;DHT22;49473;50.772;8.768;2023-08-31T15:35:49;15.60;99.90
2387;DHT22;49473;50.772;8.768;2023-08-31T15:38:16;15.50;99.90
2387;DHT22;49473;50.772;8.768;2023-08-31T15:40:46;15.60;99.90
2387;DHT22;49473;50.772;8.768;2023-08-31T15:43:14;15.50;99.90
2387;DHT22;49473;50.772;8.768;2023-08-31T15:45:45;15.50;99.90
2387;DHT22;49473;50.772;8.768;2023-08-31T15:48:12;15.60;99.90